createdAt,value
2023-11-18T00:00:59.615Z,101412.19
2023-11-18T00:03:26.743Z,101413.84
2023-11-18T00:05:53.862Z,101419.19
2023-11-18T00:08:20.960Z,101426.09
2023-11-18T00:10:48.630Z,101425.16
2023-11-18T00:13:16.692Z,101429.47
2023-11-18T00:15:44.106Z,101431.19
2023-11-18T00:18:11.125Z,101426.91
2023-11-18T00:20:38.143Z,101431.28
2023-11-18T00:23:08.095Z,101432.91
2023-11-18T00:25:37.380Z,101436.44
2023-11-18T00:28:04.482Z,101439.00
2023-11-18T00:30:31.522Z,101437.97
2023-11-18T00:32:58.718Z,101447.66
2023-11-18T00:35:25.785Z,101458.25
2023-11-18T00:37:53.045Z,101458.09
2023-11-18T00:40:20.094Z,101453.94
2023-11-18T00:42:47.140Z,101455.72
2023-11-18T00:45:14.141Z,101456.53
2023-11-18T00:47:42.460Z,101462.56
2023-11-18T00:50:09.999Z,101467.91
2023-11-18T00:52:39.752Z,101472.25
2023-11-18T00:55:12.141Z,101475.69
2023-11-18T00:57:40.316Z,101478.41
2023-11-18T01:00:15.164Z,101484.53
2023-11-18T01:02:42.783Z,101482.03
2023-11-18T01:05:12.039Z,101488.19
2023-11-18T01:07:39.382Z,101492.44
2023-11-18T01:10:07.379Z,101495.00
2023-11-18T01:12:34.635Z,101504.53
2023-11-18T01:15:01.707Z,101501.84
2023-11-18T01:17:28.746Z,101508.00
2023-11-18T01:19:56.137Z,101507.06
2023-11-18T01:22:23.130Z,101511.38
2023-11-18T01:24:52.125Z,101510.50
2023-11-18T01:27:20.504Z,101517.38
2023-11-18T01:29:50.150Z,101515.72
2023-11-18T01:32:18.391Z,101515.63
2023-11-18T01:34:51.099Z,101520.81
2023-11-18T01:37:18.125Z,101511.19
2023-11-18T01:39:45.134Z,101512.09
2023-11-18T01:42:12.860Z,101508.59
2023-11-18T01:44:39.946Z,101514.56
2023-11-18T01:47:07.168Z,101518.19
2023-11-18T01:49:38.219Z,101510.41
2023-11-18T01:52:05.458Z,101514.78
2023-11-18T01:54:33.295Z,101516.50
2023-11-18T01:57:01.504Z,101516.50
2023-11-18T01:59:31.057Z,101519.00
2023-11-18T02:02:00.636Z,101528.84
2023-11-18T02:04:29.114Z,101522.72
2023-11-18T02:06:57.211Z,101533.94
2023-11-18T02:09:33.763Z,101535.75
2023-11-18T02:12:21.199Z,101533.13
2023-11-18T02:14:48.477Z,101539.28
2023-11-18T02:17:15.758Z,101539.28
2023-11-18T02:19:42.714Z,101540.94
2023-11-18T02:22:11.143Z,101539.09
2023-11-18T02:24:38.311Z,101546.06
2023-11-18T02:27:08.377Z,101545.13
2023-11-18T02:29:38.569Z,101544.34
2023-11-18T02:32:16.841Z,101546.09
2023-11-18T02:34:49.669Z,101550.53
2023-11-18T02:37:17.331Z,101549.56
2023-11-18T02:39:44.726Z,101547.84
2023-11-18T02:42:13.420Z,101566.19
2023-11-18T02:44:40.440Z,101551.31
2023-11-18T02:47:07.402Z,101554.78
2023-11-18T02:49:37.510Z,101553.84
2023-11-18T02:52:04.561Z,101555.44
2023-11-18T02:54:31.607Z,101546.75
2023-11-18T02:57:00.022Z,101549.56
2023-11-18T02:59:27.369Z,101553.91
2023-11-18T03:01:56.012Z,101548.78
2023-11-18T03:04:24.852Z,101559.13
2023-11-18T03:06:52.040Z,101554.75
2023-11-18T03:09:19.784Z,101553.00
2023-11-18T03:11:46.810Z,101549.44
2023-11-18T03:14:13.879Z,101548.59
2023-11-18T03:16:41.039Z,101543.28
2023-11-18T03:19:09.725Z,101548.53
2023-11-18T03:21:36.971Z,101545.09
2023-11-18T03:24:04.004Z,101552.94
2023-11-18T03:26:32.933Z,101552.13
2023-11-18T03:29:00.090Z,101558.16
2023-11-18T03:31:27.344Z,101553.75
2023-11-18T03:33:54.395Z,101565.03
2023-11-18T03:36:22.082Z,101561.56
2023-11-18T03:38:50.411Z,101558.91
2023-11-18T03:41:17.323Z,101558.97
2023-11-18T03:43:44.275Z,101563.41
2023-11-18T03:46:11.944Z,101566.75
2023-11-18T03:48:38.975Z,101558.97
2023-11-18T03:51:05.993Z,101571.09
2023-11-18T03:53:34.846Z,101565.00
2023-11-18T03:56:03.262Z,101568.47
2023-11-18T03:58:30.429Z,101560.69
2023-11-18T04:00:58.601Z,101562.38
2023-11-18T04:03:25.594Z,101560.63
2023-11-18T04:05:52.555Z,101563.25
2023-11-18T04:08:19.591Z,101572.00
2023-11-18T04:10:46.597Z,101573.72
2023-11-18T04:13:13.890Z,101576.28
2023-11-18T04:15:40.819Z,101575.44
2023-11-18T04:18:07.994Z,101577.94
2023-11-18T04:20:34.962Z,101588.34
2023-11-18T04:23:02.000Z,101583.13
2023-11-18T04:25:29.068Z,101587.44
2023-11-18T04:27:56.003Z,101581.38
2023-11-18T04:30:22.905Z,101590.13
2023-11-18T04:32:49.900Z,101592.75
2023-11-18T04:35:18.223Z,101597.94
2023-11-18T04:37:47.154Z,101610.06
2023-11-18T04:40:14.386Z,101601.28
2023-11-18T04:42:41.374Z,101600.47
2023-11-18T04:45:10.615Z,101607.53
2023-11-18T04:47:38.733Z,101608.50
2023-11-18T04:50:06.288Z,101602.34
2023-11-18T04:52:36.049Z,101602.34
2023-11-18T04:55:04.275Z,101609.41
2023-11-18T04:57:31.257Z,101607.69
2023-11-18T04:59:58.174Z,101616.41
2023-11-18T05:02:25.313Z,101610.44
2023-11-18T05:04:52.471Z,101622.59
2023-11-18T05:07:19.722Z,101620.81
2023-11-18T05:09:46.795Z,101615.63
2023-11-18T05:12:13.749Z,101614.84
2023-11-18T05:14:40.785Z,101617.53
2023-11-18T05:17:08.323Z,101613.19
2023-11-18T05:19:35.491Z,101621.88
2023-11-18T05:22:02.519Z,101614.84
2023-11-18T05:24:29.533Z,101619.16
2023-11-18T05:26:56.758Z,101616.53
2023-11-18T05:29:25.006Z,101614.00
2023-11-18T05:31:52.366Z,101613.09
2023-11-18T05:34:21.858Z,101611.31
2023-11-18T05:36:49.655Z,101611.31
2023-11-18T05:39:16.600Z,101620.06
2023-11-18T05:41:46.872Z,101612.19
2023-11-18T05:44:27.868Z,101620.00
2023-11-18T05:46:55.048Z,101620.00
2023-11-18T05:49:25.259Z,101622.59
2023-11-18T05:51:52.878Z,101626.00
2023-11-18T05:54:19.810Z,101616.44
2023-11-18T05:56:46.709Z,101623.44
2023-11-18T05:59:15.066Z,101617.69
2023-11-18T06:01:42.223Z,101621.16
2023-11-18T06:04:09.577Z,101615.88
2023-11-18T06:06:38.257Z,101628.03
2023-11-18T06:09:09.905Z,101623.72
2023-11-18T06:11:42.237Z,101629.81
2023-11-18T06:14:09.761Z,101629.13
2023-11-18T06:16:39.448Z,101627.41
2023-11-18T06:19:07.611Z,101630.91
2023-11-18T06:21:34.646Z,101631.75
2023-11-18T06:24:01.762Z,101630.16
2023-11-18T06:26:28.792Z,101631.94
2023-11-18T06:28:56.103Z,101630.25
2023-11-18T06:31:24.832Z,101632.94
2023-11-18T06:33:51.930Z,101626.09
2023-11-18T06:36:19.292Z,101623.56
2023-11-18T06:38:46.601Z,101634.06
2023-11-18T06:41:14.666Z,101640.16
2023-11-18T06:43:53.156Z,101647.16
2023-11-18T06:46:23.324Z,101644.53
2023-11-18T06:48:50.980Z,101649.63
2023-11-18T06:51:17.957Z,101656.56
2023-11-18T06:53:45.641Z,101663.44
2023-11-18T06:56:12.679Z,101669.59
2023-11-18T06:58:40.884Z,101664.41
2023-11-18T07:01:08.069Z,101671.34
2023-11-18T07:03:35.112Z,101662.59
2023-11-18T07:06:02.201Z,101660.84
2023-11-18T07:08:29.199Z,101665.06
2023-11-18T07:10:57.832Z,101669.31
2023-11-18T07:13:24.845Z,101667.50
2023-11-18T07:15:51.840Z,101680.50
2023-11-18T07:18:18.858Z,101677.94
2023-11-18T07:20:46.415Z,101678.91
2023-11-18T07:23:13.411Z,101681.44
2023-11-18T07:25:40.397Z,101692.72
2023-11-18T07:28:09.797Z,101688.41
2023-11-18T07:30:38.094Z,101691.09
2023-11-18T07:33:06.494Z,101692.75
2023-11-18T07:35:33.566Z,101698.91
2023-11-18T07:38:01.453Z,101712.75
2023-11-18T07:40:29.376Z,101710.28
2023-11-18T07:43:02.729Z,101715.53
2023-11-18T07:45:30.168Z,101717.19
2023-11-18T07:47:57.265Z,101718.81
2023-11-18T07:50:24.222Z,101718.03
2023-11-18T07:52:51.649Z,101724.91
2023-11-18T07:55:19.515Z,101729.16
2023-11-18T07:57:46.546Z,101730.97
2023-11-18T08:00:16.205Z,101732.63
2023-11-18T08:02:43.254Z,101728.31
2023-11-18T08:05:14.408Z,101731.00
2023-11-18T08:07:41.814Z,101724.06
2023-11-18T08:10:13.869Z,101730.88
2023-11-18T08:12:44.343Z,101733.47
2023-11-18T08:15:11.502Z,101742.03
2023-11-18T08:17:38.612Z,101736.84
2023-11-18T08:20:15.111Z,101748.09
2023-11-18T08:22:45.382Z,101741.13
2023-11-18T08:25:13.961Z,101740.28
2023-11-18T08:27:41.727Z,101742.91
2023-11-18T08:30:12.545Z,101729.88
2023-11-18T08:32:40.244Z,101738.41
2023-11-18T08:35:10.968Z,101749.63
2023-11-18T08:37:38.277Z,101746.03
2023-11-18T08:40:07.650Z,101741.63
2023-11-18T08:42:35.494Z,101741.72
2023-11-18T08:45:05.249Z,101732.78
2023-11-18T08:47:33.284Z,101735.13
2023-11-18T08:50:12.784Z,101729.72
2023-11-18T08:52:44.490Z,101724.44
2023-11-18T08:55:21.937Z,101732.28
2023-11-18T08:57:53.307Z,101726.19
2023-11-18T09:00:39.163Z,101739.03
2023-11-18T09:03:06.638Z,101745.81
2023-11-18T09:05:34.003Z,101748.47
2023-11-18T09:08:03.268Z,101750.06
2023-11-18T09:10:30.292Z,101748.28
2023-11-18T09:12:58.145Z,101751.75
2023-11-18T09:15:25.585Z,101758.91
2023-11-18T09:17:54.072Z,101760.56
2023-11-18T09:20:23.730Z,101765.78
2023-11-18T09:22:50.652Z,101771.81
2023-11-18T09:25:18.619Z,101779.69
2023-11-18T09:27:46.256Z,101770.06
2023-11-18T09:30:16.161Z,101767.28
2023-11-18T09:32:43.462Z,101773.44
2023-11-18T09:35:13.614Z,101773.53
2023-11-18T09:37:43.658Z,101768.38
2023-11-18T09:40:16.779Z,101764.75
2023-11-18T09:42:45.217Z,101757.69
2023-11-18T09:45:15.167Z,101758.69
2023-11-18T09:47:43.586Z,101748.94
2023-11-18T09:50:11.818Z,101755.78
2023-11-18T09:52:42.383Z,101760.34
2023-11-18T09:55:16.418Z,101759.50
2023-11-18T09:57:45.005Z,101772.38
2023-11-18T10:00:22.017Z,101774.94
2023-11-18T10:02:51.484Z,101772.38
2023-11-18T10:05:21.868Z,101776.63
2023-11-18T10:07:49.532Z,101780.09
2023-11-18T10:10:16.904Z,101770.28
2023-11-18T10:12:45.986Z,101769.13
2023-11-18T10:15:14.649Z,101763.59
2023-11-18T10:17:56.245Z,101760.72
2023-11-18T10:20:26.789Z,101760.41
2023-11-18T10:23:23.079Z,101755.81
2023-11-18T10:25:54.130Z,101746.59
2023-11-18T10:28:33.492Z,101756.03
2023-11-18T10:31:07.588Z,101746.31
2023-11-18T10:33:38.788Z,101742.81
2023-11-18T10:36:08.469Z,101744.47
2023-11-18T10:38:44.719Z,101744.56
2023-11-18T10:41:13.237Z,101734.81
2023-11-18T10:43:43.074Z,101740.94
2023-11-18T10:46:17.085Z,101741.97
2023-11-18T10:48:50.270Z,101755.06
2023-11-18T10:51:21.175Z,101746.22
2023-11-18T10:53:54.789Z,101755.78
2023-11-18T10:56:28.389Z,101755.78
2023-11-18T10:59:01.763Z,101757.56
2023-11-18T11:01:34.907Z,101761.91
2023-11-18T11:04:05.583Z,101762.78
2023-11-18T11:06:33.496Z,101761.00
2023-11-18T11:09:00.549Z,101755.56
2023-11-18T11:11:30.121Z,101763.22
2023-11-18T11:13:58.124Z,101762.25
2023-11-18T11:16:32.852Z,101754.28
2023-11-18T11:18:59.953Z,101770.94
2023-11-18T11:21:29.510Z,101768.91
2023-11-18T11:23:58.941Z,101767.41
2023-11-18T11:26:42.209Z,101750.72
2023-11-18T11:29:21.280Z,101753.22
2023-11-18T11:31:49.450Z,101754.06
2023-11-18T11:34:21.534Z,101748.50
2023-11-18T11:36:52.193Z,101741.56
2023-11-18T11:39:26.568Z,101739.47
2023-11-18T11:41:57.314Z,101734.81
2023-11-18T11:44:31.552Z,101744.94
2023-11-18T11:47:01.170Z,101750.94
2023-11-18T11:49:30.795Z,101745.09
2023-11-18T11:52:04.534Z,101745.03
2023-11-18T11:54:51.069Z,101727.50
2023-11-18T11:57:18.055Z,101730.69
2023-11-18T11:59:45.875Z,101719.94
2023-11-18T12:02:18.640Z,101712.91
2023-11-18T12:04:55.373Z,101713.31
2023-11-18T12:07:24.360Z,101707.00
2023-11-18T12:09:54.658Z,101712.66
2023-11-18T12:12:22.110Z,101713.75
2023-11-18T12:14:53.493Z,101719.09
2023-11-18T12:17:23.518Z,101708.66
2023-11-18T12:19:51.963Z,101715.41
2023-11-18T12:22:20.218Z,101704.88
2023-11-18T12:24:57.414Z,101694.38
2023-11-18T12:27:40.433Z,101694.00
2023-11-18T12:30:16.476Z,101690.63
2023-11-18T12:33:11.483Z,101696.03
2023-11-18T12:35:39.174Z,101687.94
2023-11-18T12:38:08.011Z,101682.44
2023-11-18T12:40:47.823Z,101673.75
2023-11-18T12:43:18.682Z,101682.31
2023-11-18T12:45:54.852Z,101694.00
2023-11-18T12:48:27.953Z,101695.47
2023-11-18T12:50:56.688Z,101689.66
2023-11-18T12:53:26.774Z,101697.59
2023-11-18T12:55:54.013Z,101696.25
2023-11-18T12:58:21.287Z,101693.50
2023-11-18T13:00:48.439Z,101687.03
2023-11-18T13:03:16.484Z,101687.31
2023-11-18T13:05:44.681Z,101696.97
2023-11-18T13:08:11.732Z,101692.00
2023-11-18T13:10:38.780Z,101689.94
2023-11-18T13:13:06.241Z,101678.91
2023-11-18T13:15:33.181Z,101680.78
2023-11-18T13:18:10.718Z,101680.34
2023-11-18T13:20:38.417Z,101676.91
2023-11-18T13:23:09.728Z,101671.16
2023-11-18T13:25:37.871Z,101666.88
2023-11-18T13:28:06.208Z,101664.75
2023-11-18T13:30:33.688Z,101666.22
2023-11-18T13:33:00.734Z,101672.03
2023-11-18T13:35:28.994Z,101673.88
2023-11-18T13:37:56.325Z,101672.28
2023-11-18T13:40:24.841Z,101668.75
2023-11-18T13:43:06.295Z,101675.94
2023-11-18T13:45:38.394Z,101666.31
2023-11-18T13:48:05.993Z,101665.59
2023-11-18T13:50:35.270Z,101655.72
2023-11-18T13:53:02.299Z,101658.16
2023-11-18T13:55:29.651Z,101654.09
2023-11-18T13:57:58.704Z,101658.16
2023-11-18T14:00:31.198Z,101657.88
2023-11-18T14:02:59.466Z,101652.63
2023-11-18T14:05:26.585Z,101658.69
2023-11-18T14:07:56.986Z,101652.06
2023-11-18T14:10:25.738Z,101661.44
2023-11-18T14:13:03.580Z,101652.97
2023-11-18T14:15:31.432Z,101646.97
2023-11-18T14:17:58.837Z,101656.63
2023-11-18T14:20:25.957Z,101652.72
2023-11-18T14:22:55.790Z,101645.56
2023-11-18T14:25:25.206Z,101653.75
2023-11-18T14:27:52.567Z,101655.97
2023-11-18T14:30:20.749Z,101648.06
2023-11-18T14:32:47.926Z,101655.38
2023-11-18T14:35:18.284Z,101656.44
2023-11-18T14:37:46.256Z,101654.97
2023-11-18T14:40:16.999Z,101658.66
2023-11-18T14:42:46.996Z,101643.31
2023-11-18T14:45:14.696Z,101639.16
2023-11-18T14:47:42.224Z,101637.53
2023-11-18T14:50:18.684Z,101634.97
2023-11-18T14:52:46.741Z,101629.06
2023-11-18T14:55:13.768Z,101627.41
2023-11-18T14:57:44.472Z,101628.47
2023-11-18T15:00:27.969Z,101624.16
2023-11-18T15:02:58.217Z,101621.66
2023-11-18T15:05:28.257Z,101609.59
2023-11-18T15:07:56.129Z,101616.75
2023-11-18T15:10:23.636Z,101614.22
2023-11-18T15:12:54.227Z,101606.50
2023-11-18T15:15:32.019Z,101600.53
2023-11-18T15:18:06.000Z,101606.59
2023-11-18T15:20:33.193Z,101598.16
2023-11-18T15:23:01.273Z,101600.81
2023-11-18T15:25:28.419Z,101605.22
2023-11-18T15:27:57.191Z,101605.38
2023-11-18T15:30:26.453Z,101605.38
2023-11-18T15:32:53.619Z,101608.03
2023-11-18T15:35:22.150Z,101609.88
2023-11-18T15:37:49.198Z,101599.44
2023-11-18T15:40:20.290Z,101603.75
2023-11-18T15:42:50.999Z,101592.56
2023-11-18T15:45:18.513Z,101585.59
2023-11-18T15:47:45.650Z,101576.06
2023-11-18T15:50:22.451Z,101569.09
2023-11-18T15:52:50.225Z,101563.00
2023-11-18T15:55:18.709Z,101561.25
2023-11-18T15:57:48.451Z,101559.59
2023-11-18T16:00:18.501Z,101565.72
2023-11-18T16:02:49.758Z,101577.03
2023-11-18T16:05:18.606Z,101570.06
2023-11-18T16:07:46.157Z,101570.97
2023-11-18T16:10:33.704Z,101564.09
2023-11-18T16:13:01.161Z,101558.13
2023-11-18T16:15:28.864Z,101546.91
2023-11-18T16:17:56.487Z,101533.97
2023-11-18T16:20:25.511Z,101526.25
2023-11-18T16:22:53.136Z,101529.72
2023-11-18T16:25:21.436Z,101528.94
2023-11-18T16:27:48.889Z,101529.88
2023-11-18T16:30:16.148Z,101520.41
2023-11-18T16:32:45.665Z,101532.59
2023-11-18T16:35:14.270Z,101517.88
2023-11-18T16:37:41.455Z,101518.78
2023-11-18T16:40:14.977Z,101516.16
2023-11-18T16:42:45.079Z,101517.03
2023-11-18T16:45:12.654Z,101517.91
2023-11-18T16:47:40.550Z,101528.31
2023-11-18T16:50:09.173Z,101514.41
2023-11-18T16:52:36.366Z,101507.56
2023-11-18T16:55:03.820Z,101512.84
2023-11-18T16:57:31.760Z,101492.03
2023-11-18T16:59:59.009Z,101486.88
2023-11-18T17:02:25.984Z,101490.34
2023-11-18T17:04:53.659Z,101495.59
2023-11-18T17:07:22.158Z,101484.41
2023-11-18T17:09:49.118Z,101482.69
2023-11-18T17:12:16.102Z,101467.13
2023-11-18T17:14:43.296Z,101477.63
2023-11-18T17:17:10.343Z,101467.19
2023-11-18T17:19:37.390Z,101468.13
2023-11-18T17:22:05.542Z,101470.72
2023-11-18T17:24:32.530Z,101463.84
2023-11-18T17:27:00.609Z,101461.25
2023-11-18T17:29:27.566Z,101458.66
2023-11-18T17:31:54.839Z,101457.75
2023-11-18T17:34:21.836Z,101453.44
2023-11-18T17:36:48.799Z,101454.28
2023-11-18T17:39:15.710Z,101452.53
2023-11-18T17:41:42.760Z,101443.88
2023-11-18T17:44:09.834Z,101436.09
2023-11-18T17:46:37.046Z,101440.41
2023-11-18T17:49:05.738Z,101444.84
2023-11-18T17:51:34.005Z,101438.75
2023-11-18T17:54:01.037Z,101423.16
2023-11-18T17:56:28.158Z,101422.25
2023-11-18T17:58:55.196Z,101416.16
2023-11-18T18:01:24.565Z,101405.81
2023-11-18T18:03:52.378Z,101412.72
2023-11-18T18:06:19.345Z,101413.59
2023-11-18T18:08:46.293Z,101412.72
2023-11-18T18:11:13.306Z,101415.34
2023-11-18T18:13:40.896Z,101417.91
2023-11-18T18:16:09.290Z,101417.00
2023-11-18T18:18:36.270Z,101405.72
2023-11-18T18:21:03.326Z,101387.50
2023-11-18T18:23:30.463Z,101400.50
2023-11-18T18:25:57.510Z,101408.28
2023-11-18T18:28:27.298Z,101419.59
2023-11-18T18:30:54.600Z,101428.31
2023-11-18T18:33:21.904Z,101422.22
2023-11-18T18:35:49.623Z,101404.91
2023-11-18T18:38:16.700Z,101390.19
2023-11-18T18:40:43.921Z,101396.28
2023-11-18T18:43:11.727Z,101398.91
2023-11-18T18:45:39.035Z,101394.63
2023-11-18T18:48:06.075Z,101389.41
2023-11-18T18:50:38.472Z,101398.94
2023-11-18T18:53:08.055Z,101394.69
2023-11-18T18:55:35.207Z,101385.16
2023-11-18T18:58:02.258Z,101389.50
2023-11-18T19:00:29.866Z,101382.56
2023-11-18T19:02:56.936Z,101385.16
2023-11-18T19:05:24.749Z,101384.28
2023-11-18T19:07:56.825Z,101376.50
2023-11-18T19:10:24.110Z,101366.06
2023-11-18T19:12:51.083Z,101349.59
2023-11-18T19:15:18.081Z,101355.72
2023-11-18T19:17:45.733Z,101353.09
2023-11-18T19:20:15.318Z,101354.78
2023-11-18T19:22:42.865Z,101355.59
2023-11-18T19:25:09.790Z,101351.28
2023-11-18T19:27:43.687Z,101348.72
2023-11-18T19:30:13.371Z,101351.28
2023-11-18T19:32:41.271Z,101340.06
2023-11-18T19:35:08.722Z,101341.81
2023-11-18T19:37:35.922Z,101333.09
2023-11-18T19:40:06.891Z,101333.06
2023-11-18T19:42:34.159Z,101329.59
2023-11-18T19:45:01.188Z,101328.72
2023-11-18T19:47:30.568Z,101310.47
2023-11-18T19:49:58.741Z,101312.16
2023-11-18T19:52:25.781Z,101301.69
2023-11-18T19:54:52.799Z,101290.44
2023-11-18T19:57:20.001Z,101296.50
2023-11-18T19:59:47.167Z,101297.38
2023-11-18T20:02:14.428Z,101297.38
2023-11-18T20:04:42.975Z,101293.88
2023-11-18T20:07:10.261Z,101283.47
2023-11-18T20:09:37.189Z,101283.50
2023-11-18T20:12:05.342Z,101277.44
2023-11-18T20:14:34.207Z,101279.16
2023-11-18T20:17:01.554Z,101273.03
2023-11-18T20:19:33.585Z,101273.03
2023-11-18T20:22:01.310Z,101271.34
2023-11-18T20:24:29.557Z,101273.94
2023-11-18T20:26:56.506Z,101273.88
2023-11-18T20:29:23.562Z,101268.69
2023-11-18T20:31:50.496Z,101262.53
2023-11-18T20:34:17.774Z,101258.22
2023-11-18T20:36:45.031Z,101229.63
2023-11-18T20:39:18.259Z,101237.41
2023-11-18T20:41:45.713Z,101227.00
2023-11-18T20:44:13.571Z,101220.84
2023-11-18T20:46:40.808Z,101217.38
2023-11-18T20:49:07.845Z,101213.00
2023-11-18T20:51:35.633Z,101213.91
2023-11-18T20:54:07.736Z,101206.91
2023-11-18T20:56:35.315Z,101205.19
2023-11-18T20:59:02.299Z,101205.22
2023-11-18T21:01:30.215Z,101210.41
2023-11-18T21:03:57.700Z,101218.22
2023-11-18T21:06:24.945Z,101203.47
2023-11-18T21:08:52.076Z,101195.66
2023-11-18T21:11:19.215Z,101188.72
2023-11-18T21:13:46.634Z,101188.63
2023-11-18T21:16:14.021Z,101177.31
2023-11-18T21:18:41.246Z,101182.59
2023-11-18T21:21:08.232Z,101169.53
2023-11-18T21:23:35.612Z,101167.75
2023-11-18T21:26:02.678Z,101145.16
2023-11-18T21:28:29.644Z,101145.16
2023-11-18T21:30:57.619Z,101132.13
2023-11-18T21:33:24.857Z,101124.31
2023-11-18T21:35:52.229Z,101106.94
2023-11-18T21:38:19.963Z,101106.03
2023-11-18T21:40:47.511Z,101094.69
2023-11-18T21:43:14.453Z,101096.44
2023-11-18T21:45:41.419Z,101087.72
2023-11-18T21:48:08.368Z,101085.97
2023-11-18T21:50:35.389Z,101074.69
2023-11-18T21:53:03.725Z,101068.53
2023-11-18T21:55:30.951Z,101065.00
2023-11-18T21:57:57.997Z,101067.66
2023-11-18T22:00:25.391Z,101066.81
2023-11-18T22:02:53.434Z,101062.44
2023-11-18T22:05:20.775Z,101063.31
2023-11-18T22:07:48.049Z,101057.19
2023-11-18T22:10:18.974Z,101046.81
2023-11-18T22:12:46.309Z,101051.97
2023-11-18T22:15:18.350Z,101053.69
2023-11-18T22:17:45.879Z,101051.91
2023-11-18T22:20:15.273Z,101049.31
2023-11-18T22:22:42.425Z,101057.91
2023-11-18T22:25:09.838Z,101053.56
2023-11-18T22:27:41.142Z,101045.84
2023-11-18T22:30:08.963Z,101045.84
2023-11-18T22:32:38.917Z,101051.84
2023-11-18T22:35:08.059Z,101044.84
2023-11-18T22:37:35.842Z,101035.28
2023-11-18T22:40:09.494Z,101023.00
2023-11-18T22:42:37.848Z,101033.41
2023-11-18T22:45:05.215Z,101025.50
2023-11-18T22:47:32.698Z,101015.97
2023-11-18T22:50:01.043Z,101011.72
2023-11-18T22:52:28.160Z,101003.84
2023-11-18T22:54:55.173Z,101010.75
2023-11-18T22:57:22.088Z,100994.28
2023-11-18T22:59:49.031Z,100987.44
2023-11-18T23:02:17.670Z,100990.03
2023-11-18T23:04:46.462Z,100969.25
2023-11-18T23:07:15.732Z,100959.59
2023-11-18T23:09:42.868Z,100951.78
2023-11-18T23:12:10.533Z,100951.78
2023-11-18T23:14:38.068Z,100941.38
2023-11-18T23:19:41.830Z,100917.13
2023-11-18T23:22:16.055Z,100923.13
2023-11-18T23:24:44.105Z,100913.69
2023-11-18T23:27:11.398Z,100905.00
2023-11-18T23:29:38.560Z,100911.00
2023-11-18T23:32:06.814Z,100915.31
2023-11-18T23:34:34.194Z,100916.22
2023-11-18T23:37:01.350Z,100894.50
2023-11-18T23:39:31.841Z,100878.94
2023-11-18T23:41:58.828Z,100865.91
2023-11-18T23:44:25.772Z,100856.47
2023-11-18T23:46:53.311Z,100856.47
2023-11-18T23:49:20.641Z,100853.88
2023-11-18T23:51:47.648Z,100851.28
2023-11-18T23:54:14.688Z,100849.75
2023-11-18T23:56:41.643Z,100841.97
2023-11-18T23:59:08.849Z,100824.56
